Time;durP1;ratioP1;P1;durP2;ratioP2;P2;SDS_P1;SDS_P2;PMS_P1;PMS_P2;Temp;Humidity;BMP_temperature;BMP_pressure;BME280_temperature;BME280_humidity;BME280_pressure;Samples;Min_cycle;Max_cycle;Signal;HPM_P1;HPM_P2
2021/11/29 00:02:01;;;;;;;10.95;6.50;;;;;;;;;;5084939;28;20632;-77
2021/11/29 00:04:31;;;;;;;9.10;4.97;;;;;;;;;;5103355;28;20054;-79
2021/11/29 00:07:00;;;;;;;9.50;5.32;;;;;;;;;;5087996;28;20066;-78
2021/11/29 00:09:30;;;;;;;14.05;6.35;;;;;;;;;;5086867;28;20099;-78
2021/11/29 00:11:59;;;;;;;11.03;5.73;;;;;;;;;;5087403;28;20062;-79
2021/11/29 00:14:28;;;;;;;9.05;5.10;;;;;;;;;;5089444;28;20056;-78
2021/11/29 00:16:57;;;;;;;8.40;6.05;;;;;;;;;;5090152;28;20048;-78
2021/11/29 00:19:27;;;;;;;7.82;5.43;;;;;;;;;;5089118;28;20293;-80
2021/11/29 00:22:01;;;;;;;12.75;5.65;;;;;;;;;;5089263;28;20064;-76
2021/11/29 00:24:30;;;;;;;10.33;5.63;;;;;;;;;;5086815;28;20127;-76
2021/11/29 00:26:59;;;;;;;10.52;6.70;;;;;;;;;;5086092;28;20044;-77
2021/11/29 00:29:31;;;;;;;9.95;5.78;;;;;;;;;;5086809;28;20123;-77
2021/11/29 00:32:00;;;;;;;13.38;5.35;;;;;;;;;;5089378;28;20090;-76
2021/11/29 00:34:30;;;;;;;12.70;5.70;;;;;;;;;;5085200;28;20060;-76
2021/11/29 00:37:00;;;;;;;13.33;7.37;;;;;;;;;;5087163;28;20076;-77
2021/11/29 00:39:29;;;;;;;9.40;4.45;;;;;;;;;;5085740;28;20458;-76
2021/11/29 00:41:59;;;;;;;11.23;6.15;;;;;;;;;;5088734;28;20553;-76
2021/11/29 00:44:28;;;;;;;12.85;5.30;;;;;;;;;;5086765;28;20097;-76
2021/11/29 00:46:57;;;;;;;8.48;4.18;;;;;;;;;;5088091;28;20047;-77
2021/11/29 00:49:26;;;;;;;11.67;5.43;;;;;;;;;;5087696;28;20082;-76
2021/11/29 00:51:55;;;;;;;12.85;6.82;;;;;;;;;;5090680;28;20215;-77
2021/11/29 00:54:25;;;;;;;11.35;5.57;;;;;;;;;;5090403;28;20059;-76
2021/11/29 00:56:54;;;;;;;17.38;5.57;;;;;;;;;;5070337;28;20523;-76
2021/11/29 00:59:23;;;;;;;9.52;5.10;;;;;;;;;;5082758;28;20079;-77
2021/11/29 01:01:52;;;;;;;11.03;6.47;;;;;;;;;;5087320;28;20079;-76
2021/11/29 01:04:21;;;;;;;14.32;5.78;;;;;;;;;;5069875;28;20541;-77
2021/11/29 01:06:50;;;;;;;11.68;6.60;;;;;;;;;;5087110;28;20102;-76
2021/11/29 01:12:14;;;;;;;12.13;5.63;;;;;;;;;;5083392;28;20079;-77
2021/11/29 01:14:43;;;;;;;12.97;5.67;;;;;;;;;;5087375;28;20068;-76
2021/11/29 01:17:12;;;;;;;8.55;5.45;;;;;;;;;;5084515;28;20071;-77
2021/11/29 01:19:42;;;;;;;10.68;5.18;;;;;;;;;;5088946;28;20589;-77
2021/11/29 01:22:11;;;;;;;10.75;4.63;;;;;;;;;;5088349;28;20482;-76
2021/11/29 01:24:41;;;;;;;10.55;5.45;;;;;;;;;;5088117;28;20087;-76
2021/11/29 01:27:10;;;;;;;9.20;5.30;;;;;;;;;;5087330;28;20055;-76
2021/11/29 01:29:40;;;;;;;10.90;5.75;;;;;;;;;;5084841;28;20583;-76
2021/11/29 01:32:09;;;;;;;9.60;4.40;;;;;;;;;;5082199;28;20123;-77
2021/11/29 01:34:37;;;;;;;14.15;6.25;;;;;;;;;;5085839;28;20048;-76
2021/11/29 01:37:06;;;;;;;9.73;5.15;;;;;;;;;;5087748;28;20075;-76
2021/11/29 01:39:35;;;;;;;18.37;5.87;;;;;;;;;;5088290;28;20062;-77
2021/11/29 01:42:04;;;;;;;11.07;5.60;;;;;;;;;;5088260;28;20044;-76
2021/11/29 01:44:33;;;;;;;11.40;5.28;;;;;;;;;;5088533;28;20058;-76
2021/11/29 01:47:04;;;;;;;15.55;5.85;;;;;;;;;;5069971;28;20441;-76
2021/11/29 01:49:33;;;;;;;11.10;5.75;;;;;;;;;;5084481;28;20135;-76
2021/11/29 01:52:03;;;;;;;10.37;5.40;;;;;;;;;;5088150;28;20276;-76
2021/11/29 01:54:32;;;;;;;10.13;5.25;;;;;;;;;;5084083;28;20110;-77
2021/11/29 01:57:00;;;;;;;14.15;5.53;;;;;;;;;;5089142;28;20127;-76
2021/11/29 01:59:29;;;;;;;12.73;5.38;;;;;;;;;;5085464;28;20084;-77
2021/11/29 02:01:58;;;;;;;10.10;5.20;;;;;;;;;;5085969;28;20055;-76
2021/11/29 02:04:29;;;;;;;12.43;6.07;;;;;;;;;;5085660;28;20071;-77
2021/11/29 02:06:57;;;;;;;10.25;6.07;;;;;;;;;;5086543;28;20135;-76
2021/11/29 02:09:26;;;;;;;10.77;5.72;;;;;;;;;;5087000;28;20079;-77
2021/11/29 02:11:56;;;;;;;11.00;5.60;;;;;;;;;;5087516;28;20152;-77
2021/11/29 02:14:25;;;;;;;12.43;5.93;;;;;;;;;;5089656;28;20094;-78
2021/11/29 02:16:55;;;;;;;10.67;6.07;;;;;;;;;;5087600;28;20164;-77
2021/11/29 02:19:24;;;;;;;11.68;5.72;;;;;;;;;;5087541;28;20375;-77
2021/11/29 02:21:55;;;;;;;9.52;4.75;;;;;;;;;;5087793;28;20058;-77
2021/11/29 02:24:49;;;;;;;8.52;4.03;;;;;;;;;;5092264;28;20040;-77
2021/11/29 02:27:18;;;;;;;10.48;5.90;;;;;;;;;;5089476;28;20040;-77
2021/11/29 02:29:47;;;;;;;8.13;4.47;;;;;;;;;;5092305;28;20044;-77
2021/11/29 02:32:16;;;;;;;10.18;4.78;;;;;;;;;;5091389;28;20080;-76
2021/11/29 02:34:44;;;;;;;8.77;4.68;;;;;;;;;;5071041;28;20405;-77
2021/11/29 02:37:15;;;;;;;7.95;4.97;;;;;;;;;;5058895;28;20051;-77
2021/11/29 02:39:44;;;;;;;9.38;5.38;;;;;;;;;;5090828;28;20397;-76
2021/11/29 02:42:14;;;;;;;10.63;5.97;;;;;;;;;;5092164;28;20086;-75
2021/11/29 02:44:44;;;;;;;12.63;4.53;;;;;;;;;;5074170;28;20143;-76
2021/11/29 02:47:14;;;;;;;10.85;5.43;;;;;;;;;;5074109;28;20039;-76
2021/11/29 02:49:43;;;;;;;10.10;5.72;;;;;;;;;;5073810;28;20105;-78
2021/11/29 02:52:13;;;;;;;16.27;6.65;;;;;;;;;;5075460;28;20044;-76
2021/11/29 02:54:44;;;;;;;15.93;5.73;;;;;;;;;;5072190;28;20060;-76
2021/11/29 02:57:14;;;;;;;18.80;7.28;;;;;;;;;;5090913;28;20036;-76
2021/11/29 02:59:44;;;;;;;9.20;4.68;;;;;;;;;;5089900;28;20051;-76
2021/11/29 03:02:14;;;;;;;12.35;6.22;;;;;;;;;;5073411;28;20393;-76
2021/11/29 03:04:45;;;;;;;8.73;5.43;;;;;;;;;;5091434;28;20422;-76
2021/11/29 03:07:14;;;;;;;15.03;6.97;;;;;;;;;;5074456;28;20052;-76
2021/11/29 03:09:44;;;;;;;10.48;5.03;;;;;;;;;;5091224;28;20501;-76
2021/11/29 03:12:13;;;;;;;13.07;6.00;;;;;;;;;;5068670;28;20460;-76
2021/11/29 03:14:43;;;;;;;14.98;6.47;;;;;;;;;;5072738;28;20079;-77
2021/11/29 03:17:16;;;;;;;10.55;5.30;;;;;;;;;;5089161;28;20512;-76
2021/11/29 03:19:47;;;;;;;12.17;4.57;;;;;;;;;;5092570;28;20084;-85
2021/11/29 03:22:16;;;;;;;15.32;5.28;;;;;;;;;;5090745;28;20044;-85
2021/11/29 03:24:47;;;;;;;14.77;6.53;;;;;;;;;;5094865;28;20070;-85
2021/11/29 03:27:19;;;;;;;11.52;5.32;;;;;;;;;;5091895;28;20051;-85
2021/11/29 03:29:48;;;;;;;14.70;6.35;;;;;;;;;;5072532;28;20446;-85
2021/11/29 03:32:18;;;;;;;14.17;5.97;;;;;;;;;;5069987;28;20070;-78
2021/11/29 03:34:47;;;;;;;9.18;5.55;;;;;;;;;;5076291;28;20105;-78
2021/11/29 03:37:16;;;;;;;10.10;4.63;;;;;;;;;;5089338;28;20040;-78
2021/11/29 03:39:47;;;;;;;8.40;4.35;;;;;;;;;;5090551;28;20055;-78
2021/11/29 03:42:16;;;;;;;12.20;4.53;;;;;;;;;;5071524;28;20139;-79
2021/11/29 03:44:45;;;;;;;14.10;6.03;;;;;;;;;;5085005;28;20516;-79
2021/11/29 03:47:15;;;;;;;9.80;4.60;;;;;;;;;;5090019;28;20571;-77
2021/11/29 03:49:45;;;;;;;8.60;4.95;;;;;;;;;;5089769;28;20098;-80
2021/11/29 03:52:13;;;;;;;13.48;4.78;;;;;;;;;;5090740;28;20101;-79
2021/11/29 03:54:42;;;;;;;6.85;3.85;;;;;;;;;;5088326;28;20136;-80
2021/11/29 03:57:13;;;;;;;5.23;2.13;;;;;;;;;;5082212;28;20075;-78
2021/11/29 03:59:42;;;;;;;5.93;3.17;;;;;;;;;;5088494;28;20040;-78
2021/11/29 04:02:11;;;;;;;6.47;2.75;;;;;;;;;;5085711;28;20126;-77
2021/11/29 04:04:40;;;;;;;8.45;4.28;;;;;;;;;;5088865;28;20531;-78
2021/11/29 04:07:08;;;;;;;5.53;3.25;;;;;;;;;;5087343;28;20131;-77
2021/11/29 04:09:37;;;;;;;7.07;3.67;;;;;;;;;;5088438;28;20138;-77
2021/11/29 04:12:07;;;;;;;6.07;2.78;;;;;;;;;;5089210;28;20094;-78
2021/11/29 04:14:37;;;;;;;4.90;2.63;;;;;;;;;;5073307;28;20052;-78
2021/11/29 04:17:07;;;;;;;6.10;3.30;;;;;;;;;;5087249;28;20036;-80
2021/11/29 04:19:41;;;;;;;8.18;3.13;;;;;;;;;;5085624;28;20508;-77
2021/11/29 04:22:11;;;;;;;4.27;2.33;;;;;;;;;;5087326;28;20048;-77
2021/11/29 04:24:41;;;;;;;4.95;2.33;;;;;;;;;;5089986;28;20470;-80
2021/11/29 04:27:10;;;;;;;5.78;3.03;;;;;;;;;;5087213;28;20059;-80
2021/11/29 04:29:42;;;;;;;4.32;2.90;;;;;;;;;;5087051;28;20070;-80
2021/11/29 04:32:11;;;;;;;5.05;3.05;;;;;;;;;;5084350;28;20056;-77
2021/11/29 04:34:40;;;;;;;5.03;2.83;;;;;;;;;;5084873;28;20166;-79
2021/11/29 04:37:09;;;;;;;7.45;2.90;;;;;;;;;;5087069;28;20123;-79
2021/11/29 04:39:38;;;;;;;5.30;3.65;;;;;;;;;;5087894;28;20474;-79
2021/11/29 04:42:08;;;;;;;4.90;2.55;;;;;;;;;;5087850;28;20132;-80
2021/11/29 04:44:36;;;;;;;5.70;3.35;;;;;;;;;;5087089;28;20064;-80
2021/11/29 04:47:07;;;;;;;4.67;2.50;;;;;;;;;;5087610;28;20115;-80
2021/11/29 04:49:36;;;;;;;9.13;2.83;;;;;;;;;;5089076;28;20040;-80
2021/11/29 04:52:05;;;;;;;6.18;3.45;;;;;;;;;;5087138;28;20401;-80
2021/11/29 04:54:34;;;;;;;8.02;3.13;;;;;;;;;;5088355;28;20102;-80
2021/11/29 04:57:04;;;;;;;7.05;3.00;;;;;;;;;;5090890;28;20207;-80
2021/11/29 04:59:32;;;;;;;8.20;3.47;;;;;;;;;;5081137;28;20047;-80
2021/11/29 05:02:02;;;;;;;5.97;2.72;;;;;;;;;;5084308;28;20418;-79
2021/11/29 05:04:57;;;;;;;5.93;2.80;;;;;;;;;;5077174;28;20410;-79
2021/11/29 05:07:26;;;;;;;6.93;2.95;;;;;;;;;;5085458;28;20127;-78
2021/11/29 05:09:55;;;;;;;5.43;2.70;;;;;;;;;;5084447;28;20055;-79
2021/11/29 05:12:23;;;;;;;5.13;3.00;;;;;;;;;;5089445;28;20537;-78
2021/11/29 05:14:52;;;;;;;7.32;2.95;;;;;;;;;;5087218;28;20417;-76
2021/11/29 05:17:22;;;;;;;9.70;4.40;;;;;;;;;;5086150;28;20056;-78
2021/11/29 05:19:51;;;;;;;7.00;3.50;;;;;;;;;;5088079;28;20044;-79
2021/11/29 05:22:22;;;;;;;8.57;2.65;;;;;;;;;;5081292;28;20137;-79
2021/11/29 05:24:52;;;;;;;6.73;3.60;;;;;;;;;;5081946;28;20053;-77
2021/11/29 05:27:21;;;;;;;9.23;4.60;;;;;;;;;;5076824;28;20044;-77
2021/11/29 05:29:49;;;;;;;8.40;3.70;;;;;;;;;;5085815;28;20486;-77
2021/11/29 05:32:19;;;;;;;9.27;3.78;;;;;;;;;;5085396;28;20050;-77
2021/11/29 05:34:47;;;;;;;8.05;3.88;;;;;;;;;;5078202;28;20144;-77
2021/11/29 05:37:23;;;;;;;10.60;3.60;;;;;;;;;;5070385;28;20048;-77
2021/11/29 05:39:53;;;;;;;6.43;2.55;;;;;;;;;;5063951;28;20060;-77
2021/11/29 05:42:42;;;;;;;6.53;3.60;;;;;;;;;;5064769;28;20056;-76
2021/11/29 05:45:11;;;;;;;12.65;5.78;;;;;;;;;;5071615;28;20049;-78
2021/11/29 05:47:42;;;;;;;8.55;4.47;;;;;;;;;;5066416;28;20052;-82
2021/11/29 05:50:12;;;;;;;7.40;3.77;;;;;;;;;;5066895;28;20091;-77
2021/11/29 05:52:42;;;;;;;6.05;4.00;;;;;;;;;;5067516;28;20054;-77
2021/11/29 05:55:12;;;;;;;9.02;3.65;;;;;;;;;;5086950;28;20075;-77
2021/11/29 05:57:42;;;;;;;6.30;3.25;;;;;;;;;;5090224;28;20051;-77
2021/11/29 06:00:13;;;;;;;18.10;4.50;;;;;;;;;;5074778;28;20140;-78
2021/11/29 06:02:43;;;;;;;12.23;4.30;;;;;;;;;;5061460;28;20044;-77
2021/11/29 06:05:13;;;;;;;11.80;4.57;;;;;;;;;;5085862;28;20064;-77
2021/11/29 06:07:43;;;;;;;6.10;3.35;;;;;;;;;;5050662;28;20052;-77
2021/11/29 06:10:13;;;;;;;10.85;4.15;;;;;;;;;;5079844;28;20531;-79
2021/11/29 06:12:43;;;;;;;11.90;4.68;;;;;;;;;;5050379;28;20079;-80
2021/11/29 06:15:15;;;;;;;8.10;4.27;;;;;;;;;;5080329;28;20043;-79
2021/11/29 06:17:45;;;;;;;9.88;4.55;;;;;;;;;;5072100;28;20095;-87
2021/11/29 06:20:19;;;;;;;11.60;5.38;;;;;;;;;;5069322;28;20536;-81
2021/11/29 06:22:51;;;;;;;12.23;5.50;;;;;;;;;;5074812;28;20097;-89
2021/11/29 06:25:21;;;;;;;9.15;6.05;;;;;;;;;;5076094;28;20040;-87
2021/11/29 06:27:50;;;;;;;12.17;5.30;;;;;;;;;;5070231;28;20162;-82
2021/11/29 06:30:20;;;;;;;10.73;4.88;;;;;;;;;;5069837;28;20072;-77
2021/11/29 06:32:49;;;;;;;11.18;4.43;;;;;;;;;;5084384;28;20044;-84
2021/11/29 06:35:20;;;;;;;12.40;4.75;;;;;;;;;;5073529;28;20134;-81
2021/11/29 06:37:49;;;;;;;7.45;3.53;;;;;;;;;;5106096;28;20047;-78
2021/11/29 06:40:20;;;;;;;8.87;5.00;;;;;;;;;;5090622;28;21185;-80
2021/11/29 06:42:49;;;;;;;15.75;5.35;;;;;;;;;;5096730;28;20044;-79
2021/11/29 06:45:20;;;;;;;10.13;5.40;;;;;;;;;;5082439;28;20550;-78
2021/11/29 06:47:50;;;;;;;11.43;5.28;;;;;;;;;;5105232;28;20040;-80
2021/11/29 06:50:20;;;;;;;12.70;5.95;;;;;;;;;;5068960;28;20135;-81
2021/11/29 06:52:50;;;;;;;8.83;4.97;;;;;;;;;;5088059;28;20055;-83
2021/11/29 06:55:21;;;;;;;15.38;5.55;;;;;;;;;;5098952;28;20547;-85
2021/11/29 06:57:51;;;;;;;11.88;5.03;;;;;;;;;;5106384;28;20066;-84
2021/11/29 07:00:23;;;;;;;11.50;3.72;;;;;;;;;;5106623;28;20056;-82
2021/11/29 07:02:52;;;;;;;5.72;3.75;;;;;;;;;;5107317;28;20044;-81
2021/11/29 07:05:21;;;;;;;11.70;4.53;;;;;;;;;;5108527;28;20087;-80
2021/11/29 07:07:51;;;;;;;12.18;6.07;;;;;;;;;;5100814;28;20508;-81
2021/11/29 07:10:23;;;;;;;13.35;6.20;;;;;;;;;;5109391;28;20044;-81
2021/11/29 07:12:52;;;;;;;10.35;4.43;;;;;;;;;;5109241;28;20052;-81
2021/11/29 07:15:23;;;;;;;12.30;6.60;;;;;;;;;;5109230;28;20051;-81
2021/11/29 07:17:52;;;;;;;13.57;5.17;;;;;;;;;;5089128;28;20106;-81
2021/11/29 07:20:21;;;;;;;9.57;5.60;;;;;;;;;;5111512;28;20055;-85
2021/11/29 07:22:50;;;;;;;8.27;3.72;;;;;;;;;;5080039;28;20043;-80
2021/11/29 07:25:44;;;;;;;12.73;6.22;;;;;;;;;;5112293;28;20071;-81
2021/11/29 07:28:14;;;;;;;12.07;4.32;;;;;;;;;;5100995;28;20044;-80
2021/11/29 07:30:43;;;;;;;11.87;6.27;;;;;;;;;;5102486;28;20067;-80
2021/11/29 07:33:12;;;;;;;9.80;5.38;;;;;;;;;;5100387;28;20076;-80
2021/11/29 07:35:41;;;;;;;9.38;4.80;;;;;;;;;;5080903;28;20130;-79
2021/11/29 07:38:12;;;;;;;11.15;5.72;;;;;;;;;;5080683;28;20044;-81
2021/11/29 07:40:41;;;;;;;11.55;5.05;;;;;;;;;;5086166;28;20048;-81
2021/11/29 07:43:11;;;;;;;8.53;4.90;;;;;;;;;;5089160;28;20036;-81
2021/11/29 07:45:42;;;;;;;9.60;4.35;;;;;;;;;;5079750;28;20143;-81
2021/11/29 07:48:12;;;;;;;9.70;4.05;;;;;;;;;;5086913;28;20074;-81
2021/11/29 07:50:46;;;;;;;11.45;5.75;;;;;;;;;;5080774;28;20052;-81
2021/11/29 07:53:15;;;;;;;13.23;5.70;;;;;;;;;;5077264;28;20114;-81
2021/11/29 07:55:45;;;;;;;11.10;4.00;;;;;;;;;;5085421;28;20382;-82
2021/11/29 07:58:13;;;;;;;14.15;4.43;;;;;;;;;;5092087;28;20469;-80
2021/11/29 08:00:43;;;;;;;9.27;4.15;;;;;;;;;;5087027;28;20079;-81
2021/11/29 08:03:12;;;;;;;7.93;5.47;;;;;;;;;;5089428;28;20043;-80
2021/11/29 08:06:08;;;;;;;11.38;4.93;;;;;;;;;;5081093;28;20052;-79
2021/11/29 08:09:01;;;;;;;8.70;4.50;;;;;;;;;;5086611;28;20070;-80
2021/11/29 08:11:30;;;;;;;12.00;6.00;;;;;;;;;;5090379;28;20569;-80
2021/11/29 08:13:59;;;;;;;9.75;4.72;;;;;;;;;;5080052;28;20052;-79
2021/11/29 08:16:28;;;;;;;9.75;4.82;;;;;;;;;;5089597;28;20059;-81
2021/11/29 08:18:58;;;;;;;11.05;4.88;;;;;;;;;;5086045;28;20368;-81
2021/11/29 08:21:45;;;;;;;8.40;4.73;;;;;;;;;;5080295;28;20049;-81
2021/11/29 08:24:14;;;;;;;11.95;4.93;;;;;;;;;;5080712;28;20075;-81
2021/11/29 08:26:43;;;;;;;9.30;4.55;;;;;;;;;;5085385;28;20490;-81
2021/11/29 08:29:12;;;;;;;10.55;4.65;;;;;;;;;;5085276;28;20075;-79
2021/11/29 08:31:43;;;;;;;10.57;5.28;;;;;;;;;;5073194;28;20135;-79
2021/11/29 08:34:13;;;;;;;13.00;4.90;;;;;;;;;;5091115;28;20135;-81
2021/11/29 08:36:42;;;;;;;11.95;5.28;;;;;;;;;;5080031;28;20109;-80
2021/11/29 08:39:11;;;;;;;12.73;5.68;;;;;;;;;;5073745;28;20171;-80
2021/11/29 08:41:40;;;;;;;13.43;5.18;;;;;;;;;;5074434;28;20080;-81
2021/11/29 08:44:15;;;;;;;13.90;5.95;;;;;;;;;;5085797;28;20134;-80
2021/11/29 08:46:48;;;;;;;13.07;5.47;;;;;;;;;;5074205;28;20092;-80
2021/11/29 08:49:18;;;;;;;9.50;4.88;;;;;;;;;;5067294;28;20490;-80
2021/11/29 08:51:47;;;;;;;8.82;4.22;;;;;;;;;;5051396;28;20126;-80
2021/11/29 08:54:17;;;;;;;11.55;5.72;;;;;;;;;;5069834;28;20482;-81
2021/11/29 08:56:47;;;;;;;13.95;5.38;;;;;;;;;;5085786;28;20044;-80
2021/11/29 08:59:16;;;;;;;9.23;3.40;;;;;;;;;;5080772;28;20055;-85
2021/11/29 09:01:47;;;;;;;10.32;3.67;;;;;;;;;;5087727;28;20047;-80
2021/11/29 09:04:16;;;;;;;10.48;4.70;;;;;;;;;;5060463;28;20439;-80
2021/11/29 09:06:45;;;;;;;10.20;5.30;;;;;;;;;;5067019;28;20123;-80
2021/11/29 09:09:14;;;;;;;9.50;5.22;;;;;;;;;;5085032;28;20577;-80
2021/11/29 09:11:43;;;;;;;7.87;3.20;;;;;;;;;;5088459;28;20173;-80
2021/11/29 09:14:37;;;;;;;8.25;3.88;;;;;;;;;;5063042;28;20070;-80
2021/11/29 09:17:11;;;;;;;12.40;5.13;;;;;;;;;;5058119;28;20037;-80
2021/11/29 09:19:40;;;;;;;7.43;4.40;;;;;;;;;;5082318;28;20061;-81
2021/11/29 09:22:09;;;;;;;9.45;4.20;;;;;;;;;;5077207;28;20051;-80
2021/11/29 09:24:39;;;;;;;7.93;3.37;;;;;;;;;;5050847;28;20109;-80
2021/11/29 09:27:08;;;;;;;8.98;4.05;;;;;;;;;;5066784;28;20109;-80
2021/11/29 09:29:37;;;;;;;13.25;4.80;;;;;;;;;;5069018;28;20052;-80
2021/11/29 09:32:07;;;;;;;9.13;4.03;;;;;;;;;;5071853;28;20131;-80
2021/11/29 09:34:40;;;;;;;14.35;4.43;;;;;;;;;;5088698;28;20092;-80
2021/11/29 09:37:09;;;;;;;12.30;4.23;;;;;;;;;;5091316;28;20044;-80
2021/11/29 09:39:37;;;;;;;7.40;3.17;;;;;;;;;;5074846;28;20123;-80
2021/11/29 09:42:07;;;;;;;8.57;4.40;;;;;;;;;;5107788;28;20054;-79
2021/11/29 09:44:36;;;;;;;11.25;4.85;;;;;;;;;;5110983;28;20139;-80
2021/11/29 09:47:06;;;;;;;14.57;5.07;;;;;;;;;;5095312;28;20476;-80
2021/11/29 09:49:34;;;;;;;5.20;2.90;;;;;;;;;;5091246;28;20113;-80
2021/11/29 09:52:05;;;;;;;15.93;3.58;;;;;;;;;;5085094;28;20101;-78
2021/11/29 09:54:34;;;;;;;9.02;3.80;;;;;;;;;;5081808;28;20047;-78
2021/11/29 09:59:57;;;;;;;7.25;3.08;;;;;;;;;;5088546;28;20131;-78
2021/11/29 10:02:26;;;;;;;4.70;2.03;;;;;;;;;;5089189;28;20151;-81
2021/11/29 10:04:55;;;;;;;5.97;2.88;;;;;;;;;;5086854;28;20693;-81
2021/11/29 10:07:29;;;;;;;7.38;3.65;;;;;;;;;;5103461;28;20074;-78
2021/11/29 10:09:59;;;;;;;8.50;3.60;;;;;;;;;;5088425;28;20056;-78
2021/11/29 10:12:29;;;;;;;6.65;2.72;;;;;;;;;;5076346;28;20142;-79
2021/11/29 10:15:11;;;;;;;8.23;3.30;;;;;;;;;;5090713;28;20481;-79
2021/11/29 10:17:41;;;;;;;7.80;2.78;;;;;;;;;;5101261;28;20051;-79
2021/11/29 10:20:30;;;;;;;8.77;3.30;;;;;;;;;;5088093;28;20059;-79
2021/11/29 10:23:02;;;;;;;8.45;2.53;;;;;;;;;;5100454;28;20048;-79
2021/11/29 10:25:32;;;;;;;10.00;2.78;;;;;;;;;;5078567;28;20071;-79
2021/11/29 10:28:02;;;;;;;7.27;3.03;;;;;;;;;;5079879;28;20584;-79
2021/11/29 10:30:31;;;;;;;4.65;2.35;;;;;;;;;;5090733;28;20097;-79
2021/11/29 10:33:00;;;;;;;5.85;3.28;;;;;;;;;;5089209;28;20052;-79
2021/11/29 10:35:36;;;;;;;10.65;3.00;;;;;;;;;;5086899;28;20429;-80
2021/11/29 10:38:07;;;;;;;7.18;2.80;;;;;;;;;;5077969;28;20044;-80
2021/11/29 10:40:36;;;;;;;7.30;2.80;;;;;;;;;;5077525;28;20421;-80
2021/11/29 10:43:06;;;;;;;7.22;2.40;;;;;;;;;;5091243;28;20036;-79
2021/11/29 10:45:40;;;;;;;5.65;3.30;;;;;;;;;;5091662;28;20052;-79
2021/11/29 10:48:24;;;;;;;5.38;2.17;;;;;;;;;;5078818;28;20044;-74
2021/11/29 10:51:07;;;;;;;9.98;3.22;;;;;;;;;;5086483;28;20490;-74
2021/11/29 10:54:03;;;;;;;5.77;2.23;;;;;;;;;;5091295;28;20520;-77
2021/11/29 10:56:33;;;;;;;9.15;3.90;;;;;;;;;;5089591;28;20055;-74
2021/11/29 10:59:03;;;;;;;5.22;2.63;;;;;;;;;;5087011;28;20127;-74
2021/11/29 11:01:36;;;;;;;4.70;2.25;;;;;;;;;;5087435;28;20123;-76
2021/11/29 11:07:03;;;;;;;5.93;2.10;;;;;;;;;;5081116;28;20044;-75
2021/11/29 11:09:36;;;;;;;4.90;2.92;;;;;;;;;;5088704;28;20093;-75
2021/11/29 11:12:06;;;;;;;10.38;2.78;;;;;;;;;;5089150;28;20040;-76
2021/11/29 11:14:45;;;;;;;5.03;2.13;;;;;;;;;;5079271;28;20482;-75
2021/11/29 11:17:59;;;;;;;6.05;2.00;;;;;;;;;;5081272;28;20040;-75
2021/11/29 11:20:28;;;;;;;12.97;3.40;;;;;;;;;;5084372;28;20080;-75
2021/11/29 11:22:58;;;;;;;10.20;2.50;;;;;;;;;;5087921;28;20543;-75
2021/11/29 11:25:33;;;;;;;7.18;2.50;;;;;;;;;;5085213;28;20062;-74
2021/11/29 11:28:04;;;;;;;3.80;1.85;;;;;;;;;;5084257;28;20105;-75
2021/11/29 11:30:34;;;;;;;6.05;3.17;;;;;;;;;;5089764;28;20094;-74
2021/11/29 11:33:06;;;;;;;5.50;2.37;;;;;;;;;;5086073;28;20135;-76
2021/11/29 11:38:35;;;;;;;3.97;1.95;;;;;;;;;;5086543;28;20039;-75
2021/11/29 11:41:07;;;;;;;7.50;3.67;;;;;;;;;;5092865;28;20079;-75
2021/11/29 11:43:38;;;;;;;5.68;2.72;;;;;;;;;;5109361;28;20143;-75
2021/11/29 11:46:09;;;;;;;6.20;2.40;;;;;;;;;;5107357;28;20046;-75
2021/11/29 11:48:38;;;;;;;7.47;3.10;;;;;;;;;;5092072;28;20071;-75
2021/11/29 11:51:07;;;;;;;7.25;2.55;;;;;;;;;;5095524;28;20105;-76
2021/11/29 11:54:01;;;;;;;10.88;4.50;;;;;;;;;;5109593;28;20047;-76
2021/11/29 11:56:31;;;;;;;8.88;3.42;;;;;;;;;;5084908;28;20496;-76
2021/11/29 11:59:06;;;;;;;9.07;2.70;;;;;;;;;;5089019;28;20047;-75
2021/11/29 12:01:39;;;;;;;5.22;2.58;;;;;;;;;;5102205;28;20123;-76
2021/11/29 12:04:12;;;;;;;5.03;1.98;;;;;;;;;;5100275;28;20134;-75
2021/11/29 12:06:44;;;;;;;14.40;3.08;;;;;;;;;;5091067;28;20103;-76
2021/11/29 12:09:14;;;;;;;10.98;3.60;;;;;;;;;;5108665;28;20044;-76
2021/11/29 12:11:45;;;;;;;5.00;2.27;;;;;;;;;;5090310;28;20079;-76
2021/11/29 12:17:19;;;;;;;12.57;2.90;;;;;;;;;;5103804;28;20043;-75
2021/11/29 12:19:49;;;;;;;7.07;2.58;;;;;;;;;;5089048;28;20048;-76
2021/11/29 12:22:34;;;;;;;6.45;2.67;;;;;;;;;;5110457;28;20043;-75
2021/11/29 12:25:21;;;;;;;6.43;2.83;;;;;;;;;;5095006;28;20048;-76
2021/11/29 12:27:52;;;;;;;9.75;3.85;;;;;;;;;;5082246;28;20039;-75
2021/11/29 12:30:35;;;;;;;4.90;2.17;;;;;;;;;;5107869;28;20066;-75
2021/11/29 12:33:05;;;;;;;7.65;2.55;;;;;;;;;;5093479;28;20509;-75
2021/11/29 12:35:35;;;;;;;5.50;2.13;;;;;;;;;;5087427;28;20060;-75
2021/11/29 12:38:48;;;;;;;4.03;2.70;;;;;;;;;;5087684;28;20044;-75
2021/11/29 12:41:32;;;;;;;4.72;2.65;;;;;;;;;;5084697;28;20119;-75
2021/11/29 12:44:03;;;;;;;5.93;2.95;;;;;;;;;;5087327;28;20127;-75
2021/11/29 12:47:16;;;;;;;7.95;2.80;;;;;;;;;;5070149;28;20105;-75
2021/11/29 12:49:50;;;;;;;6.53;2.28;;;;;;;;;;5070113;28;20036;-75
2021/11/29 12:52:34;;;;;;;4.83;2.37;;;;;;;;;;5069206;28;20504;-75
2021/11/29 12:55:05;;;;;;;8.45;2.25;;;;;;;;;;5064546;28;20048;-75
2021/11/29 12:57:36;;;;;;;9.93;2.67;;;;;;;;;;5089168;28;20044;-75
2021/11/29 13:00:08;;;;;;;5.15;1.92;;;;;;;;;;5069462;28;20060;-75
2021/11/29 13:02:42;;;;;;;9.43;3.13;;;;;;;;;;5061334;28;20136;-74
2021/11/29 13:05:35;;;;;;;4.07;1.63;;;;;;;;;;5070291;28;20044;-75
2021/11/29 13:08:06;;;;;;;6.47;2.45;;;;;;;;;;5074635;28;20048;-75
2021/11/29 13:11:05;;;;;;;7.20;2.25;;;;;;;;;;5070397;28;20052;-75
2021/11/29 13:13:54;;;;;;;6.05;2.00;;;;;;;;;;5059682;28;20131;-75
2021/11/29 13:16:32;;;;;;;8.90;3.17;;;;;;;;;;5064095;28;20079;-75
2021/11/29 13:19:26;;;;;;;9.23;2.97;;;;;;;;;;5080721;28;20044;-74
2021/11/29 13:21:57;;;;;;;3.30;1.38;;;;;;;;;;5085975;28;20044;-75
2021/11/29 13:24:31;;;;;;;7.53;1.63;;;;;;;;;;5077485;28;20049;-75
2021/11/29 13:27:04;;;;;;;6.55;2.90;;;;;;;;;;5067572;28;20079;-75
2021/11/29 13:29:35;;;;;;;4.53;1.95;;;;;;;;;;5066418;28;20407;-75
2021/11/29 13:32:08;;;;;;;12.77;3.20;;;;;;;;;;5078154;28;20060;-75
2021/11/29 13:34:38;;;;;;;3.40;1.70;;;;;;;;;;5094094;28;20069;-75
2021/11/29 13:37:10;;;;;;;3.13;1.30;;;;;;;;;;5102906;28;20047;-75
2021/11/29 13:39:40;;;;;;;5.70;1.83;;;;;;;;;;5083227;28;20428;-74
2021/11/29 13:42:16;;;;;;;12.27;2.80;;;;;;;;;;5089352;28;20112;-75
2021/11/29 13:45:06;;;;;;;4.83;1.53;;;;;;;;;;5097023;28;20036;-75
2021/11/29 13:47:37;;;;;;;4.30;2.20;;;;;;;;;;5084205;28;20055;-75
2021/11/29 13:50:09;;;;;;;4.55;1.98;;;;;;;;;;5101293;28;20073;-75
2021/11/29 13:52:40;;;;;;;3.13;1.45;;;;;;;;;;5089186;28;20071;-74
2021/11/29 13:55:11;;;;;;;3.53;2.13;;;;;;;;;;5106889;28;20040;-75
2021/11/29 13:57:42;;;;;;;4.13;2.00;;;;;;;;;;5091295;28;20040;-75
2021/11/29 14:00:16;;;;;;;3.00;1.35;;;;;;;;;;5105938;28;20126;-75
2021/11/29 14:03:06;;;;;;;5.35;1.80;;;;;;;;;;5081911;28;20113;-73
2021/11/29 14:05:38;;;;;;;3.53;2.03;;;;;;;;;;5087531;28;20186;-75
2021/11/29 14:08:08;;;;;;;3.60;1.65;;;;;;;;;;5089084;28;20101;-75
2021/11/29 14:10:39;;;;;;;2.97;1.43;;;;;;;;;;5084599;28;20139;-75
2021/11/29 14:13:11;;;;;;;4.20;1.88;;;;;;;;;;5083224;28;20051;-75
2021/11/29 14:16:09;;;;;;;5.25;2.03;;;;;;;;;;5086599;28;20039;-75
2021/11/29 14:18:42;;;;;;;7.32;2.75;;;;;;;;;;5043724;28;20075;-75
2021/11/29 14:21:14;;;;;;;3.65;2.28;;;;;;;;;;5110862;28;20095;-75
2021/11/29 14:23:48;;;;;;;5.17;1.87;;;;;;;;;;5091602;28;20048;-75
2021/11/29 14:26:27;;;;;;;6.72;2.35;;;;;;;;;;5107916;28;20047;-75
2021/11/29 14:28:57;;;;;;;4.25;2.22;;;;;;;;;;5088196;28;20044;-75
2021/11/29 14:34:23;;;;;;;4.97;2.38;;;;;;;;;;5084096;28;20048;-77
2021/11/29 14:36:53;;;;;;;3.40;1.73;;;;;;;;;;5090363;28;20048;-76
2021/11/29 14:39:24;;;;;;;6.03;2.55;;;;;;;;;;5092253;28;20052;-76
2021/11/29 14:41:56;;;;;;;4.63;2.13;;;;;;;;;;5086293;28;20048;-78
2021/11/29 14:44:26;;;;;;;3.35;2.00;;;;;;;;;;5081319;28;20049;-74
2021/11/29 14:46:56;;;;;;;4.50;2.55;;;;;;;;;;5082368;28;20044;-74
2021/11/29 14:49:30;;;;;;;3.23;1.20;;;;;;;;;;5090732;28;20453;-77
2021/11/29 14:52:01;;;;;;;6.32;2.42;;;;;;;;;;5088033;28;20044;-73
2021/11/29 14:54:30;;;;;;;4.40;2.30;;;;;;;;;;5085110;28;20123;-73
2021/11/29 14:57:04;;;;;;;3.40;1.70;;;;;;;;;;5080397;28;20040;-79
2021/11/29 14:59:34;;;;;;;5.70;2.20;;;;;;;;;;5080192;28;20040;-78
2021/11/29 15:02:04;;;;;;;5.33;2.33;;;;;;;;;;5087385;28;20048;-83
2021/11/29 15:04:38;;;;;;;5.07;2.67;;;;;;;;;;5081896;28;20052;-74
2021/11/29 15:07:12;;;;;;;4.70;2.10;;;;;;;;;;5087104;28;20094;-80
2021/11/29 15:09:42;;;;;;;11.02;1.88;;;;;;;;;;5080072;28;20139;-84
2021/11/29 15:12:19;;;;;;;4.03;2.55;;;;;;;;;;5088756;28;20135;-78
2021/11/29 15:14:48;;;;;;;6.03;2.87;;;;;;;;;;5089431;28;20063;-74
2021/11/29 15:17:19;;;;;;;2.75;1.13;;;;;;;;;;5084262;28;20405;-75
2021/11/29 15:19:51;;;;;;;4.82;2.30;;;;;;;;;;5066447;28;21643;-79
2021/11/29 15:22:21;;;;;;;8.68;2.45;;;;;;;;;;5090869;28;20088;-79
2021/11/29 15:24:54;;;;;;;3.05;1.67;;;;;;;;;;5088078;28;20050;-83